Time;durP1;ratioP1;P1;durP2;ratioP2;P2;SDS_P1;SDS_P2;PMS_P1;PMS_P2;Temp;Humidity;BMP_temperature;BMP_pressure;BME280_temperature;BME280_humidity;BME280_pressure;Samples;Min_cycle;Max_cycle;Signal;HPM_P1;HPM_P2
2023/12/24 00:02:21;;;;;;;5.90;1.63;;;;;;;;;;5006540;28;20081;-73
2023/12/24 00:04:49;;;;;;;5.22;1.50;;;;;;;;;;5010535;28;20046;-72
2023/12/24 00:07:16;;;;;;;4.88;1.38;;;;;;;;;;4992775;28;20057;-74
2023/12/24 00:09:43;;;;;;;8.43;1.77;;;;;;;;;;5020889;28;20421;-72
2023/12/24 00:12:09;;;;;;;6.97;1.63;;;;;;;;;;5021486;28;20060;-71
2023/12/24 00:14:38;;;;;;;6.50;1.48;;;;;;;;;;5013126;28;20053;-70
2023/12/24 00:17:05;;;;;;;4.07;1.20;;;;;;;;;;5004239;28;20084;-70
2023/12/24 00:19:31;;;;;;;6.97;1.55;;;;;;;;;;5011845;28;20049;-69
2023/12/24 00:21:58;;;;;;;5.28;1.20;;;;;;;;;;4998593;28;20057;-71
2023/12/24 00:24:24;;;;;;;10.43;2.00;;;;;;;;;;5011301;28;20054;-74
2023/12/24 00:26:51;;;;;;;7.97;1.52;;;;;;;;;;5006558;28;20050;-72
2023/12/24 00:29:17;;;;;;;4.18;1.30;;;;;;;;;;5020667;28;20156;-73
2023/12/24 00:31:44;;;;;;;6.50;1.48;;;;;;;;;;4997239;28;20046;-73
2023/12/24 00:34:10;;;;;;;6.97;1.27;;;;;;;;;;5002928;28;20756;-73
2023/12/24 00:36:37;;;;;;;12.18;2.17;;;;;;;;;;4985060;28;20056;-73
2023/12/24 00:39:04;;;;;;;4.63;1.45;;;;;;;;;;5011998;28;20592;-73
2023/12/24 00:41:30;;;;;;;9.63;1.50;;;;;;;;;;5000252;28;20047;-74
2023/12/24 00:43:57;;;;;;;6.20;1.60;;;;;;;;;;4995730;28;20050;-73
2023/12/24 00:46:26;;;;;;;9.85;1.60;;;;;;;;;;5004382;28;20056;-72
2023/12/24 00:48:53;;;;;;;5.72;1.80;;;;;;;;;;5015934;28;20050;-74
2023/12/24 00:51:19;;;;;;;8.05;1.75;;;;;;;;;;4998212;28;20048;-71
2023/12/24 00:53:46;;;;;;;6.65;1.45;;;;;;;;;;5005642;28;20048;-72
2023/12/24 00:56:13;;;;;;;6.68;1.80;;;;;;;;;;5006590;28;20046;-70
2023/12/24 00:58:40;;;;;;;4.75;1.20;;;;;;;;;;5014850;28;20045;-71
2023/12/24 01:01:06;;;;;;;4.70;1.45;;;;;;;;;;4982948;28;20815;-71
2023/12/24 01:03:33;;;;;;;5.05;1.33;;;;;;;;;;5001813;28;20534;-71
2023/12/24 01:05:59;;;;;;;5.68;1.40;;;;;;;;;;4979429;28;20148;-72
2023/12/24 01:08:26;;;;;;;4.47;1.50;;;;;;;;;;5006540;28;20068;-73
2023/12/24 01:10:53;;;;;;;3.42;1.20;;;;;;;;;;5013437;28;20457;-72
2023/12/24 01:13:19;;;;;;;3.88;1.17;;;;;;;;;;5014319;28;20106;-70
2023/12/24 01:15:46;;;;;;;7.95;1.63;;;;;;;;;;5014724;28;20570;-71
2023/12/24 01:18:16;;;;;;;6.60;0.95;;;;;;;;;;4985986;28;20053;-70
2023/12/24 01:20:43;;;;;;;4.60;1.33;;;;;;;;;;4998708;28;20701;-70
2023/12/24 01:23:09;;;;;;;2.67;1.02;;;;;;;;;;5007090;28;20068;-69
2023/12/24 01:25:36;;;;;;;6.20;1.30;;;;;;;;;;5003659;28;20105;-68
2023/12/24 01:28:03;;;;;;;3.85;1.30;;;;;;;;;;5009867;28;20058;-71
2023/12/24 01:30:29;;;;;;;7.68;1.23;;;;;;;;;;4986586;28;20076;-70
2023/12/24 01:32:56;;;;;;;6.20;1.85;;;;;;;;;;5013449;28;20049;-70
2023/12/24 01:35:23;;;;;;;5.32;1.60;;;;;;;;;;5007633;28;20492;-70
2023/12/24 01:37:50;;;;;;;4.75;1.40;;;;;;;;;;5016755;28;20531;-70
2023/12/24 01:40:16;;;;;;;10.40;1.58;;;;;;;;;;5001478;28;20049;-71
2023/12/24 01:42:44;;;;;;;6.28;1.60;;;;;;;;;;5006770;28;20111;-71
2023/12/24 01:45:11;;;;;;;5.55;2.05;;;;;;;;;;5002869;28;20084;-70
2023/12/24 01:47:38;;;;;;;11.38;2.10;;;;;;;;;;5000136;28;20069;-70
2023/12/24 01:50:05;;;;;;;6.80;1.90;;;;;;;;;;5010507;28;20556;-68
2023/12/24 01:52:31;;;;;;;4.53;2.15;;;;;;;;;;5009972;28;20108;-71
2023/12/24 01:54:58;;;;;;;6.72;1.95;;;;;;;;;;5004010;28;20166;-71
2023/12/24 01:57:24;;;;;;;8.65;2.20;;;;;;;;;;5008768;28;20046;-72
2023/12/24 01:59:51;;;;;;;5.80;1.90;;;;;;;;;;5013239;28;20045;-73
2023/12/24 02:02:19;;;;;;;8.85;2.25;;;;;;;;;;5005951;28;20045;-71
2023/12/24 02:04:46;;;;;;;7.35;2.10;;;;;;;;;;5015133;28;20069;-71
2023/12/24 02:07:14;;;;;;;4.95;2.13;;;;;;;;;;5002534;28;20506;-70
2023/12/24 02:09:42;;;;;;;8.33;2.30;;;;;;;;;;5000922;28;20064;-68
2023/12/24 02:12:08;;;;;;;7.20;2.17;;;;;;;;;;4991242;28;20103;-68
2023/12/24 02:14:35;;;;;;;6.60;2.05;;;;;;;;;;5010979;28;20049;-68
2023/12/24 02:17:01;;;;;;;6.47;2.65;;;;;;;;;;5001602;28;20052;-68
2023/12/24 02:19:28;;;;;;;6.40;2.63;;;;;;;;;;5003580;28;20050;-69
2023/12/24 02:21:54;;;;;;;8.55;2.47;;;;;;;;;;4997211;28;20053;-68
2023/12/24 02:24:21;;;;;;;11.40;3.03;;;;;;;;;;4999737;28;20050;-68
2023/12/24 02:26:58;;;;;;;5.30;2.72;;;;;;;;;;4976034;28;20104;-68
2023/12/24 02:29:31;;;;;;;7.88;2.90;;;;;;;;;;5012264;28;20054;-73
2023/12/24 02:32:01;;;;;;;9.70;2.80;;;;;;;;;;5001917;28;20042;-73
2023/12/24 02:34:29;;;;;;;11.07;3.50;;;;;;;;;;5017724;28;20041;-74
2023/12/24 02:36:56;;;;;;;5.65;2.85;;;;;;;;;;5022523;28;20048;-72
2023/12/24 02:39:22;;;;;;;7.43;3.10;;;;;;;;;;5001180;28;20053;-73
2023/12/24 02:41:49;;;;;;;10.88;3.15;;;;;;;;;;5015674;28;20506;-75
2023/12/24 02:44:15;;;;;;;9.80;3.47;;;;;;;;;;4998192;28;20050;-73
2023/12/24 02:46:42;;;;;;;8.95;2.92;;;;;;;;;;5005322;28;20057;-73
2023/12/24 02:49:08;;;;;;;8.88;3.65;;;;;;;;;;5022674;28;20045;-73
2023/12/24 02:51:34;;;;;;;7.60;2.90;;;;;;;;;;5003844;28;20054;-73
2023/12/24 02:54:01;;;;;;;10.68;3.65;;;;;;;;;;5021305;28;20124;-73
2023/12/24 02:56:27;;;;;;;11.43;3.83;;;;;;;;;;4998636;28;20050;-72
2023/12/24 02:58:53;;;;;;;9.00;3.63;;;;;;;;;;5006474;28;20046;-74
2023/12/24 03:01:20;;;;;;;11.32;4.18;;;;;;;;;;5001675;28;20336;-74
2023/12/24 03:03:46;;;;;;;11.07;3.80;;;;;;;;;;5003606;28;20809;-73
2023/12/24 03:06:13;;;;;;;11.77;4.22;;;;;;;;;;5016764;28;20402;-74
2023/12/24 03:08:40;;;;;;;12.20;4.65;;;;;;;;;;5002826;28;20527;-73
2023/12/24 03:11:06;;;;;;;10.35;4.40;;;;;;;;;;5019652;28;20057;-73
2023/12/24 03:13:33;;;;;;;12.10;4.32;;;;;;;;;;5005736;28;20476;-75
2023/12/24 03:15:59;;;;;;;10.80;4.55;;;;;;;;;;5013639;28;20548;-73
2023/12/24 03:18:25;;;;;;;10.90;4.18;;;;;;;;;;5022826;28;20536;-73
2023/12/24 03:20:52;;;;;;;14.27;4.43;;;;;;;;;;5014766;28;20049;-77
2023/12/24 03:23:19;;;;;;;9.73;3.85;;;;;;;;;;5004942;28;20692;-73
2023/12/24 03:25:45;;;;;;;8.45;3.53;;;;;;;;;;4997013;28;20042;-74
2023/12/24 03:28:11;;;;;;;8.80;3.05;;;;;;;;;;5012696;28;20050;-73
2023/12/24 03:30:38;;;;;;;7.03;3.03;;;;;;;;;;5016167;28;20072;-73
2023/12/24 03:33:04;;;;;;;7.43;3.20;;;;;;;;;;5020821;28;20064;-74
2023/12/24 03:35:31;;;;;;;7.35;2.95;;;;;;;;;;5017589;28;20161;-74
2023/12/24 03:37:57;;;;;;;9.20;3.03;;;;;;;;;;5001817;28;20115;-69
2023/12/24 03:40:23;;;;;;;6.22;3.47;;;;;;;;;;4994139;28;20041;-70
2023/12/24 03:42:50;;;;;;;6.38;3.90;;;;;;;;;;5000571;28;20413;-69
2023/12/24 03:45:20;;;;;;;8.02;3.08;;;;;;;;;;5004210;28;20041;-70
2023/12/24 03:47:46;;;;;;;6.45;3.47;;;;;;;;;;5020145;28;20041;-71
2023/12/24 03:50:13;;;;;;;9.40;3.22;;;;;;;;;;5006007;28;20053;-67
2023/12/24 03:52:39;;;;;;;9.60;2.90;;;;;;;;;;5025557;28;20045;-69
2023/12/24 03:55:06;;;;;;;6.38;2.70;;;;;;;;;;5003388;28;20073;-70
2023/12/24 03:57:32;;;;;;;7.15;2.95;;;;;;;;;;4994075;28;20140;-68
2023/12/24 03:59:59;;;;;;;4.20;1.92;;;;;;;;;;5013911;28;20053;-68
2023/12/24 04:02:26;;;;;;;6.97;2.90;;;;;;;;;;4997645;28;20078;-69
2023/12/24 04:04:52;;;;;;;3.35;1.50;;;;;;;;;;5006825;28;20053;-69
2023/12/24 04:07:18;;;;;;;4.78;1.90;;;;;;;;;;5015334;28;20421;-68
2023/12/24 04:09:45;;;;;;;3.55;1.45;;;;;;;;;;5008010;28;20046;-69
2023/12/24 04:12:11;;;;;;;2.30;1.17;;;;;;;;;;4976959;28;20498;-69
2023/12/24 04:14:38;;;;;;;2.15;1.48;;;;;;;;;;5010578;28;20108;-68
2023/12/24 04:17:05;;;;;;;2.17;1.10;;;;;;;;;;5005510;28;20057;-68
2023/12/24 04:19:32;;;;;;;3.97;1.38;;;;;;;;;;4992204;28;20451;-68
2023/12/24 04:21:58;;;;;;;2.28;1.50;;;;;;;;;;5025647;28;20111;-67
2023/12/24 04:24:25;;;;;;;3.45;1.40;;;;;;;;;;4999850;28;20071;-69
2023/12/24 04:26:51;;;;;;;3.45;1.30;;;;;;;;;;5000122;28;20048;-70
2023/12/24 04:29:17;;;;;;;3.28;1.52;;;;;;;;;;5007161;28;20077;-68
2023/12/24 04:31:47;;;;;;;2.05;1.40;;;;;;;;;;5002376;28;20609;-69
2023/12/24 04:34:13;;;;;;;3.05;1.58;;;;;;;;;;5014244;28;20057;-69
2023/12/24 04:36:40;;;;;;;3.83;2.00;;;;;;;;;;5000868;28;20128;-68
2023/12/24 04:39:07;;;;;;;2.47;1.55;;;;;;;;;;5004577;28;20422;-69
2023/12/24 04:41:33;;;;;;;2.92;1.88;;;;;;;;;;4997077;28;20568;-68
2023/12/24 04:44:03;;;;;;;3.45;1.50;;;;;;;;;;5012316;28;20773;-67
2023/12/24 04:46:29;;;;;;;1.85;1.48;;;;;;;;;;5010207;28;20474;-68
2023/12/24 04:48:56;;;;;;;1.40;1.30;;;;;;;;;;5011442;28;20502;-68
2023/12/24 04:51:22;;;;;;;1.45;1.30;;;;;;;;;;5009642;28;20046;-69
2023/12/24 04:53:49;;;;;;;2.05;1.20;;;;;;;;;;5014303;28;20442;-68
2023/12/24 04:56:19;;;;;;;1.90;1.10;;;;;;;;;;5018347;28;20399;-68
2023/12/24 04:58:48;;;;;;;1.23;1.00;;;;;;;;;;5017064;28;20042;-69
2023/12/24 05:01:16;;;;;;;3.08;1.25;;;;;;;;;;5020347;28;20073;-69
2023/12/24 05:03:42;;;;;;;1.58;1.17;;;;;;;;;;4994077;28;20057;-67
2023/12/24 05:06:09;;;;;;;3.90;1.00;;;;;;;;;;5008443;28;20042;-69
2023/12/24 05:08:36;;;;;;;2.10;1.15;;;;;;;;;;5010076;28;20077;-69
2023/12/24 05:11:03;;;;;;;1.77;1.10;;;;;;;;;;4992857;28;20049;-67
2023/12/24 05:13:29;;;;;;;1.33;1.23;;;;;;;;;;5024625;28;20064;-68
2023/12/24 05:15:56;;;;;;;1.20;1.10;;;;;;;;;;5014257;28;20421;-67
2023/12/24 05:18:22;;;;;;;2.75;1.50;;;;;;;;;;5012719;28;20148;-67
2023/12/24 05:20:49;;;;;;;1.30;1.20;;;;;;;;;;5016062;28;20088;-68
2023/12/24 05:23:17;;;;;;;1.75;1.00;;;;;;;;;;5010718;28;20084;-70
2023/12/24 05:25:43;;;;;;;1.07;1.00;;;;;;;;;;5004241;28;20049;-69
2023/12/24 05:28:09;;;;;;;1.20;1.10;;;;;;;;;;4998211;28;20052;-68
2023/12/24 05:30:36;;;;;;;1.10;1.00;;;;;;;;;;5007526;28;20145;-68
2023/12/24 05:33:03;;;;;;;1.42;1.00;;;;;;;;;;5017309;28;20042;-69
2023/12/24 05:35:29;;;;;;;0.85;0.85;;;;;;;;;;5011546;28;20057;-68
2023/12/24 05:37:56;;;;;;;1.35;1.17;;;;;;;;;;5011541;28;20079;-67
2023/12/24 05:40:22;;;;;;;2.03;0.95;;;;;;;;;;5000016;28;20096;-68
2023/12/24 05:42:49;;;;;;;1.20;1.10;;;;;;;;;;5012816;28;20131;-69
2023/12/24 05:45:15;;;;;;;5.50;0.98;;;;;;;;;;5014159;28;20046;-69
2023/12/24 05:47:42;;;;;;;1.02;0.93;;;;;;;;;;5021320;28;20049;-68
2023/12/24 05:50:09;;;;;;;1.10;1.00;;;;;;;;;;5012526;28;20054;-68
2023/12/24 05:52:35;;;;;;;1.63;1.08;;;;;;;;;;4983596;28;20160;-69
2023/12/24 05:55:02;;;;;;;1.10;1.00;;;;;;;;;;5004682;28;20115;-68
2023/12/24 05:57:28;;;;;;;1.40;1.10;;;;;;;;;;4999161;28;20181;-72
2023/12/24 05:59:54;;;;;;;1.17;1.05;;;;;;;;;;5005270;28;20089;-73
2023/12/24 06:02:21;;;;;;;1.33;1.02;;;;;;;;;;4998147;28;20094;-73
2023/12/24 06:04:47;;;;;;;2.03;1.17;;;;;;;;;;5002646;28;20050;-73
2023/12/24 06:07:14;;;;;;;1.45;1.35;;;;;;;;;;5013266;28;20450;-73
2023/12/24 06:09:40;;;;;;;1.73;1.20;;;;;;;;;;4997577;28;20657;-72
2023/12/24 06:12:07;;;;;;;4.40;1.67;;;;;;;;;;4994786;28;20137;-74
2023/12/24 06:14:33;;;;;;;2.10;1.33;;;;;;;;;;5004195;28;20465;-76
2023/12/24 06:17:00;;;;;;;2.03;1.33;;;;;;;;;;5015099;28;20509;-72
2023/12/24 06:19:26;;;;;;;1.98;1.20;;;;;;;;;;5001488;28;20498;-73
2023/12/24 06:21:53;;;;;;;1.75;1.10;;;;;;;;;;4996041;28;20512;-73
2023/12/24 06:24:24;;;;;;;3.47;1.20;;;;;;;;;;5017904;28;21100;-73
2023/12/24 06:26:51;;;;;;;2.03;1.20;;;;;;;;;;5008131;28;20163;-72
2023/12/24 06:29:18;;;;;;;3.60;1.30;;;;;;;;;;5009202;28;20693;-73
2023/12/24 06:31:44;;;;;;;2.08;1.35;;;;;;;;;;5003468;28;20053;-73
2023/12/24 06:34:13;;;;;;;1.95;1.27;;;;;;;;;;5009958;28;20104;-73
2023/12/24 06:36:40;;;;;;;2.70;1.35;;;;;;;;;;5013222;28;20037;-73
2023/12/24 06:39:06;;;;;;;2.42;1.30;;;;;;;;;;5009153;28;20553;-72
2023/12/24 06:41:33;;;;;;;2.58;1.17;;;;;;;;;;4999086;28;20642;-73
2023/12/24 06:43:59;;;;;;;2.90;1.50;;;;;;;;;;5001183;28;20049;-73
2023/12/24 06:46:28;;;;;;;5.30;1.30;;;;;;;;;;4993229;28;20053;-73
2023/12/24 06:48:55;;;;;;;3.53;1.10;;;;;;;;;;5009395;28;20046;-72
2023/12/24 06:51:22;;;;;;;3.38;1.50;;;;;;;;;;5009902;28;20053;-73
2023/12/24 06:53:48;;;;;;;4.00;1.70;;;;;;;;;;5003729;28;20050;-73
2023/12/24 06:56:14;;;;;;;4.32;1.38;;;;;;;;;;4996933;28;20133;-71
2023/12/24 06:58:41;;;;;;;2.17;1.38;;;;;;;;;;5003030;28;20056;-73
2023/12/24 07:01:07;;;;;;;5.20;1.50;;;;;;;;;;4993443;28;20077;-73
2023/12/24 07:03:33;;;;;;;2.80;1.23;;;;;;;;;;5010195;28;20406;-73
2023/12/24 07:06:00;;;;;;;3.72;1.30;;;;;;;;;;5013329;28;20085;-71
2023/12/24 07:08:29;;;;;;;1.85;1.00;;;;;;;;;;5001190;28;20073;-67
2023/12/24 07:10:56;;;;;;;3.17;1.02;;;;;;;;;;5007545;28;20060;-71
2023/12/24 07:13:22;;;;;;;5.32;1.38;;;;;;;;;;5003330;28;20050;-68
2023/12/24 07:15:48;;;;;;;2.85;1.08;;;;;;;;;;5002070;28;20092;-67
2023/12/24 07:18:15;;;;;;;2.03;1.05;;;;;;;;;;5005925;28;20141;-67
2023/12/24 07:20:42;;;;;;;2.30;1.20;;;;;;;;;;5025512;28;20080;-67
2023/12/24 07:23:08;;;;;;;1.63;1.23;;;;;;;;;;5005909;28;20053;-67
2023/12/24 07:25:35;;;;;;;1.83;1.10;;;;;;;;;;5017226;28;20408;-67
2023/12/24 07:28:01;;;;;;;3.72;1.15;;;;;;;;;;5010439;28;20064;-69
2023/12/24 07:30:28;;;;;;;2.53;1.50;;;;;;;;;;5015343;28;20061;-67
2023/12/24 07:32:54;;;;;;;5.20;1.40;;;;;;;;;;5012541;28;20695;-67
2023/12/24 07:35:21;;;;;;;3.35;1.83;;;;;;;;;;5019716;28;20053;-67
2023/12/24 07:37:48;;;;;;;3.08;1.15;;;;;;;;;;5016257;28;20049;-67
2023/12/24 07:40:14;;;;;;;6.07;1.30;;;;;;;;;;5023020;28;20042;-70
2023/12/24 07:42:41;;;;;;;8.27;1.58;;;;;;;;;;5013347;28;20122;-68
2023/12/24 07:45:08;;;;;;;4.38;1.60;;;;;;;;;;5023355;28;20120;-68
2023/12/24 07:47:34;;;;;;;3.22;1.67;;;;;;;;;;4999134;28;20452;-67
2023/12/24 07:50:01;;;;;;;4.40;2.03;;;;;;;;;;5009254;28;20060;-68
2023/12/24 07:52:27;;;;;;;3.03;1.45;;;;;;;;;;5000629;28;20058;-69
2023/12/24 07:54:54;;;;;;;4.60;1.80;;;;;;;;;;5011609;28;20108;-66
2023/12/24 07:57:20;;;;;;;3.72;1.73;;;;;;;;;;5013548;28;20104;-68
2023/12/24 07:59:46;;;;;;;4.82;2.15;;;;;;;;;;5009338;28;20290;-69
2023/12/24 08:02:14;;;;;;;4.57;2.00;;;;;;;;;;5009216;28;20081;-68
2023/12/24 08:04:43;;;;;;;5.07;2.60;;;;;;;;;;5001688;28;20506;-67
2023/12/24 08:07:09;;;;;;;4.28;1.50;;;;;;;;;;5014045;28;20212;-66
2023/12/24 08:09:36;;;;;;;4.10;1.80;;;;;;;;;;5003802;28;20046;-67
2023/12/24 08:12:02;;;;;;;5.85;1.88;;;;;;;;;;5017360;28;20477;-67
2023/12/24 08:14:29;;;;;;;2.20;1.38;;;;;;;;;;5008063;28;20046;-67
2023/12/24 08:16:55;;;;;;;2.53;1.63;;;;;;;;;;4996825;28;20148;-67
2023/12/24 08:19:22;;;;;;;1.98;1.50;;;;;;;;;;5002326;28;20491;-72
2023/12/24 08:21:48;;;;;;;4.53;1.73;;;;;;;;;;5022888;28;20052;-72
2023/12/24 08:24:15;;;;;;;2.15;1.73;;;;;;;;;;5027225;28;20100;-72
2023/12/24 08:26:42;;;;;;;2.30;1.40;;;;;;;;;;5025360;28;20042;-72
2023/12/24 08:29:08;;;;;;;2.58;1.23;;;;;;;;;;5004400;28;20041;-73
2023/12/24 08:31:35;;;;;;;4.93;1.38;;;;;;;;;;5018858;28;20484;-73
2023/12/24 08:34:02;;;;;;;2.58;1.38;;;;;;;;;;5006219;28;20049;-72
2023/12/24 08:36:29;;;;;;;2.40;1.55;;;;;;;;;;5005616;28;20125;-72
2023/12/24 08:38:55;;;;;;;1.88;1.40;;;;;;;;;;5019529;28;20499;-74
2023/12/24 08:41:21;;;;;;;2.20;1.42;;;;;;;;;;5010355;28;20050;-73
2023/12/24 08:43:48;;;;;;;2.17;1.20;;;;;;;;;;5002883;28;20050;-71
2023/12/24 08:46:14;;;;;;;1.27;1.17;;;;;;;;;;4995534;28;20465;-72
2023/12/24 08:48:41;;;;;;;3.08;1.33;;;;;;;;;;5013472;28;20050;-73
2023/12/24 08:51:07;;;;;;;1.23;0.88;;;;;;;;;;4998343;28;20143;-73
2023/12/24 08:53:34;;;;;;;1.40;0.80;;;;;;;;;;5003763;28;20082;-71
2023/12/24 08:56:00;;;;;;;1.73;0.85;;;;;;;;;;5013324;28;20053;-70
2023/12/24 08:58:27;;;;;;;2.35;0.85;;;;;;;;;;5001755;28;20061;-73
2023/12/24 09:00:53;;;;;;;1.70;0.70;;;;;;;;;;5008761;28;20053;-71
2023/12/24 09:03:20;;;;;;;0.52;0.52;;;;;;;;;;4997692;28;20660;-72
2023/12/24 09:05:46;;;;;;;1.45;1.02;;;;;;;;;;5007910;28;20065;-72
2023/12/24 09:08:13;;;;;;;1.27;0.70;;;;;;;;;;5011339;28;20050;-72
2023/12/24 09:10:41;;;;;;;0.70;0.70;;;;;;;;;;5006246;28;20108;-71
2023/12/24 09:13:07;;;;;;;1.75;0.70;;;;;;;;;;5001747;28;20108;-73
2023/12/24 09:15:34;;;;;;;2.65;0.60;;;;;;;;;;4992933;28;20045;-71
2023/12/24 09:18:00;;;;;;;0.65;0.60;;;;;;;;;;5006299;28;20048;-71
2023/12/24 09:20:26;;;;;;;1.08;0.77;;;;;;;;;;5009402;28;20084;-71
2023/12/24 09:22:53;;;;;;;2.20;0.80;;;;;;;;;;5021376;28;20077;-72
2023/12/24 09:25:20;;;;;;;1.65;0.90;;;;;;;;;;4999447;28;20897;-72
2023/12/24 09:27:46;;;;;;;2.47;1.10;;;;;;;;;;4999693;28;20049;-72
2023/12/24 09:30:13;;;;;;;3.60;0.93;;;;;;;;;;5011899;28;20053;-72
2023/12/24 09:32:41;;;;;;;0.73;0.52;;;;;;;;;;5013262;28;20522;-72
2023/12/24 09:35:07;;;;;;;1.90;0.82;;;;;;;;;;5004699;28;20049;-72
2023/12/24 09:37:34;;;;;;;2.00;0.77;;;;;;;;;;5015576;28;20530;-72
2023/12/24 09:40:00;;;;;;;2.25;0.90;;;;;;;;;;5016245;28;20058;-71
2023/12/24 09:42:27;;;;;;;3.58;0.98;;;;;;;;;;5011618;28;20076;-71
2023/12/24 09:44:53;;;;;;;2.20;1.13;;;;;;;;;;5001015;28;20540;-72
2023/12/24 09:47:19;;;;;;;3.17;1.10;;;;;;;;;;5009622;28;20181;-71
2023/12/24 09:49:46;;;;;;;4.03;1.63;;;;;;;;;;5006994;28;20095;-72
2023/12/24 09:52:14;;;;;;;2.83;1.20;;;;;;;;;;5013725;28;20049;-71
2023/12/24 09:54:41;;;;;;;4.38;1.27;;;;;;;;;;5009957;28;20053;-71
2023/12/24 09:57:08;;;;;;;6.20;1.65;;;;;;;;;;5015686;28;20053;-72
2023/12/24 09:59:34;;;;;;;6.22;1.88;;;;;;;;;;5006972;28;20057;-72
2023/12/24 10:02:00;;;;;;;2.88;1.40;;;;;;;;;;4999457;28;20465;-71
2023/12/24 10:04:27;;;;;;;7.47;1.75;;;;;;;;;;5005585;28;20068;-67
2023/12/24 10:06:54;;;;;;;8.90;2.05;;;;;;;;;;5007012;28;20049;-66
2023/12/24 10:09:22;;;;;;;7.38;2.17;;;;;;;;;;5018805;28;20367;-67
2023/12/24 10:12:08;;;;;;;11.82;2.50;;;;;;;;;;5016753;28;20460;-67
2023/12/24 10:14:36;;;;;;;8.85;2.03;;;;;;;;;;5010339;28;20049;-67
2023/12/24 10:17:03;;;;;;;15.65;2.75;;;;;;;;;;4985580;28;20469;-68
2023/12/24 10:19:30;;;;;;;20.20;3.33;;;;;;;;;;4999404;28;20046;-70
2023/12/24 10:21:59;;;;;;;10.95;2.72;;;;;;;;;;5013184;28;20052;-68
2023/12/24 10:24:29;;;;;;;14.68;3.42;;;;;;;;;;5008142;28;20135;-68
2023/12/24 10:27:03;;;;;;;20.77;4.30;;;;;;;;;;5009178;28;20045;-69
2023/12/24 10:29:30;;;;;;;20.20;3.80;;;;;;;;;;4997388;28;20124;-68
2023/12/24 10:31:57;;;;;;;21.02;3.63;;;;;;;;;;5003227;28;20078;-68
2023/12/24 10:34:24;;;;;;;20.05;3.60;;;;;;;;;;5026509;28;20045;-67
2023/12/24 10:36:50;;;;;;;20.35;3.47;;;;;;;;;;5006863;28;20407;-68
2023/12/24 10:39:24;;;;;;;23.45;4.25;;;;;;;;;;5017518;28;20057;-69
2023/12/24 10:41:54;;;;;;;25.40;3.78;;;;;;;;;;4998839;28;20049;-68
2023/12/24 10:44:21;;;;;;;13.80;3.28;;;;;;;;;;5018482;28;20049;-68
2023/12/24 10:46:49;;;;;;;17.65;2.95;;;;;;;;;;5008256;28;20132;-68
2023/12/24 10:49:16;;;;;;;21.17;4.00;;;;;;;;;;5011234;28;20049;-68
2023/12/24 10:51:42;;;;;;;21.00;3.28;;;;;;;;;;5007723;28;20050;-68
2023/12/24 10:54:09;;;;;;;19.58;3.58;;;;;;;;;;4999361;28;20037;-67
2023/12/24 10:56:54;;;;;;;16.20;3.33;;;;;;;;;;5009639;28;20056;-68
2023/12/24 10:59:30;;;;;;;19.33;3.40;;;;;;;;;;5015990;28;20112;-69
2023/12/24 11:01:57;;;;;;;18.75;3.85;;;;;;;;;;5019955;28;20100;-68
2023/12/24 11:04:44;;;;;;;15.20;2.88;;;;;;;;;;5019434;28;20049;-67
2023/12/24 11:07:29;;;;;;;24.25;3.60;;;;;;;;;;5016605;28;20088;-67
2023/12/24 11:09:56;;;;;;;15.20;3.10;;;;;;;;;;5021011;28;20037;-66
2023/12/24 11:12:32;;;;;;;17.52;5.05;;;;;;;;;;5005990;28;20085;-68
2023/12/24 11:14:59;;;;;;;14.80;3.13;;;;;;;;;;5007290;28;20450;-68
2023/12/24 11:17:41;;;;;;;17.85;3.45;;;;;;;;;;5008326;28;20172;-67
2023/12/24 11:20:18;;;;;;;18.58;3.83;;;;;;;;;;5015450;28;20818;-68
2023/12/24 11:23:03;;;;;;;20.70;3.80;;;;;;;;;;5013475;28;20052;-70
2023/12/24 11:25:40;;;;;;;10.80;3.25;;;;;;;;;;5004315;28;20506;-68
2023/12/24 11:28:12;;;;;;;17.40;3.65;;;;;;;;;;5006941;28;20081;-67
2023/12/24 11:30:51;;;;;;;17.38;3.92;;;;;;;;;;5013249;28;20572;-69
2023/12/24 11:33:34;;;;;;;19.55;4.03;;;;;;;;;;5025379;28;20159;-69
2023/12/24 11:36:01;;;;;;;14.68;4.30;;;;;;;;;;4998089;28;20064;-70
2023/12/24 11:38:33;;;;;;;12.50;3.45;;;;;;;;;;5017011;28;20053;-68
2023/12/24 11:41:09;;;;;;;20.73;4.32;;;;;;;;;;4998404;28;20406;-70
2023/12/24 11:43:37;;;;;;;10.95;3.38;;;;;;;;;;5009618;28;20103;-67
2023/12/24 11:46:04;;;;;;;10.57;3.97;;;;;;;;;;4990239;28;20504;-68
2023/12/24 11:48:32;;;;;;;11.30;3.72;;;;;;;;;;5007584;28;20107;-70
2023/12/24 11:51:02;;;;;;;12.45;4.70;;;;;;;;;;5014367;28;20053;-72
2023/12/24 11:53:33;;;;;;;13.65;3.67;;;;;;;;;;5009877;28;20060;-69
2023/12/24 11:56:04;;;;;;;9.55;3.92;;;;;;;;;;5013771;28;20684;-70
2023/12/24 11:58:30;;;;;;;8.85;4.00;;;;;;;;;;5007551;28;20050;-69
2023/12/24 12:01:02;;;;;;;8.88;4.22;;;;;;;;;;5018450;28;20077;-71
2023/12/24 12:03:29;;;;;;;9.45;3.13;;;;;;;;;;5012827;28;20084;-71
2023/12/24 12:05:56;;;;;;;10.77;3.60;;;;;;;;;;5002627;28;20391;-70
2023/12/24 12:08:23;;;;;;;7.32;2.90;;;;;;;;;;4999432;28;20054;-70
2023/12/24 12:10:49;;;;;;;8.00;3.15;;;;;;;;;;4997932;28;20422;-71
2023/12/24 12:13:16;;;;;;;10.30;3.72;;;;;;;;;;5006391;28;20145;-73
2023/12/24 12:15:42;;;;;;;5.63;2.60;;;;;;;;;;5013197;28;20045;-72
2023/12/24 12:18:12;;;;;;;4.38;2.15;;;;;;;;;;5011631;28;20176;-72
2023/12/24 12:20:39;;;;;;;5.00;2.50;;;;;;;;;;5014738;28;20081;-70
2023/12/24 12:23:05;;;;;;;6.28;2.53;;;;;;;;;;5012240;28;20054;-72
2023/12/24 12:25:32;;;;;;;6.63;2.13;;;;;;;;;;5023126;28;20077;-70
2023/12/24 12:27:58;;;;;;;4.60;1.90;;;;;;;;;;5004147;28;20061;-70
2023/12/24 12:30:25;;;;;;;5.13;2.10;;;;;;;;;;5002910;28;20064;-71
2023/12/24 12:32:51;;;;;;;6.03;2.38;;;;;;;;;;5000057;28;20053;-71
2023/12/24 12:35:19;;;;;;;4.28;1.88;;;;;;;;;;5018944;28;20587;-70
2023/12/24 12:37:46;;;;;;;5.60;2.03;;;;;;;;;;5023453;28;20060;-70
2023/12/24 12:40:13;;;;;;;5.22;2.55;;;;;;;;;;5004242;28;20136;-70
2023/12/24 12:42:39;;;;;;;5.22;2.13;;;;;;;;;;5013967;28;20480;-70
2023/12/24 12:45:09;;;;;;;5.63;2.35;;;;;;;;;;4997780;28;20046;-71
2023/12/24 12:47:36;;;;;;;4.78;1.98;;;;;;;;;;5011567;28;20076;-70
2023/12/24 12:50:04;;;;;;;5.90;2.45;;;;;;;;;;5000124;28;20053;-71
2023/12/24 12:52:30;;;;;;;4.30;2.50;;;;;;;;;;5015000;28;20054;-70
2023/12/24 12:55:04;;;;;;;3.25;2.10;;;;;;;;;;5007041;28;20065;-69
2023/12/24 12:57:32;;;;;;;5.65;1.95;;;;;;;;;;5008587;28;20056;-66
2023/12/24 13:00:07;;;;;;;4.13;2.40;;;;;;;;;;5016658;28;20050;-66
2023/12/24 13:02:34;;;;;;;5.53;2.40;;;;;;;;;;5004242;28;20652;-67
2023/12/24 13:05:01;;;;;;;3.97;2.63;;;;;;;;;;4994886;28;20062;-67
2023/12/24 13:07:31;;;;;;;4.25;3.30;;;;;;;;;;5012503;28;20057;-67
2023/12/24 13:09:57;;;;;;;2.92;2.30;;;;;;;;;;5005270;28;20057;-68
2023/12/24 13:12:24;;;;;;;5.20;2.70;;;;;;;;;;5009729;28;20530;-68
2023/12/24 13:14:52;;;;;;;5.15;2.80;;;;;;;;;;5014655;28;20080;-67
2023/12/24 13:17:24;;;;;;;6.45;2.95;;;;;;;;;;5009837;28;20054;-65
2023/12/24 13:19:53;;;;;;;5.72;3.10;;;;;;;;;;5002006;28;20500;-64
2023/12/24 13:22:21;;;;;;;6.97;2.97;;;;;;;;;;5021482;28;20139;-66
2023/12/24 13:24:48;;;;;;;3.97;2.75;;;;;;;;;;5007262;28;20052;-67
2023/12/24 13:27:17;;;;;;;9.23;3.05;;;;;;;;;;5015205;28;20089;-65
2023/12/24 13:29:44;;;;;;;5.50;2.65;;;;;;;;;;4999036;28;20105;-68
2023/12/24 13:32:11;;;;;;;3.78;2.28;;;;;;;;;;4989607;28;20056;-66
2023/12/24 13:34:37;;;;;;;6.13;2.75;;;;;;;;;;5015688;28;20046;-66
2023/12/24 13:37:04;;;;;;;4.63;2.50;;;;;;;;;;5010049;28;20053;-67
2023/12/24 13:39:32;;;;;;;7.07;2.88;;;;;;;;;;5012710;28;20136;-69
2023/12/24 13:41:59;;;;;;;11.60;3.08;;;;;;;;;;5007973;28;20076;-65
2023/12/24 13:44:25;;;;;;;7.57;2.88;;;;;;;;;;5011600;28;20053;-68
2023/12/24 13:46:52;;;;;;;9.32;2.67;;;;;;;;;;5002971;28;20163;-67
2023/12/24 13:49:18;;;;;;;11.23;3.45;;;;;;;;;;5005352;28;20061;-67
2023/12/24 13:51:46;;;;;;;10.10;3.58;;;;;;;;;;5011470;28;20142;-66
2023/12/24 13:54:12;;;;;;;9.73;4.30;;;;;;;;;;5006524;28;20554;-66
2023/12/24 13:56:39;;;;;;;11.57;3.90;;;;;;;;;;5005620;28;20045;-66
2023/12/24 13:59:05;;;;;;;12.18;4.55;;;;;;;;;;5003546;28;20052;-68
2023/12/24 14:01:32;;;;;;;20.00;4.82;;;;;;;;;;4999082;28;20489;-68
2023/12/24 14:03:58;;;;;;;17.60;4.88;;;;;;;;;;5016830;28;20085;-66
2023/12/24 14:06:25;;;;;;;15.43;4.47;;;;;;;;;;4999509;28;20414;-68
2023/12/24 14:08:52;;;;;;;16.48;4.68;;;;;;;;;;5005477;28;20592;-66
2023/12/24 14:11:19;;;;;;;16.27;4.88;;;;;;;;;;5014118;28;20049;-65
2023/12/24 14:13:45;;;;;;;18.02;4.80;;;;;;;;;;4988967;28;20060;-69
2023/12/24 14:16:13;;;;;;;19.70;4.53;;;;;;;;;;5001741;28;20100;-66
2023/12/24 14:18:40;;;;;;;18.35;5.63;;;;;;;;;;5000743;28;20060;-66
2023/12/24 14:21:06;;;;;;;23.27;5.57;;;;;;;;;;5016607;28;20072;-65
2023/12/24 14:23:33;;;;;;;18.05;4.57;;;;;;;;;;5008397;28;20615;-67
2023/12/24 14:25:59;;;;;;;16.17;4.55;;;;;;;;;;5011458;28;20084;-67
2023/12/24 14:28:25;;;;;;;20.40;4.13;;;;;;;;;;5012057;28;20105;-67
2023/12/24 14:30:52;;;;;;;16.25;4.05;;;;;;;;;;5004377;28;20633;-67
2023/12/24 14:33:18;;;;;;;13.38;4.05;;;;;;;;;;5010859;28;20059;-67
2023/12/24 14:35:45;;;;;;;16.10;4.88;;;;;;;;;;5007405;28;20101;-67
2023/12/24 14:38:12;;;;;;;17.52;4.10;;;;;;;;;;5017032;28;20053;-67
2023/12/24 14:40:38;;;;;;;14.27;3.72;;;;;;;;;;5009158;28;20140;-65
2023/12/24 14:43:05;;;;;;;9.55;3.60;;;;;;;;;;4997900;28;20053;-67